createdAt,value
2022-10-12T00:01:44.849Z,20.07
2022-10-12T00:04:11.374Z,19.13
2022-10-12T00:06:37.852Z,19.87
2022-10-12T00:09:04.423Z,18.33
2022-10-12T00:11:30.835Z,21.00
2022-10-12T00:13:57.815Z,20.43
2022-10-12T00:16:24.484Z,24.47
2022-10-12T00:18:54.665Z,24.10
2022-10-12T00:21:21.235Z,28.63
2022-10-12T00:23:47.857Z,30.90
2022-10-12T00:26:18.115Z,30.23
2022-10-12T00:28:44.692Z,27.30
2022-10-12T00:31:13.119Z,28.00
2022-10-12T00:33:39.692Z,28.23
2022-10-12T00:36:18.338Z,25.20
2022-10-12T00:38:44.915Z,26.10
2022-10-12T00:41:11.843Z,30.50
2022-10-12T00:43:39.326Z,26.63
2022-10-12T00:46:07.154Z,34.53
2022-10-12T00:48:33.645Z,34.33
2022-10-12T00:51:00.228Z,33.47
2022-10-12T00:53:26.718Z,27.60
2022-10-12T00:55:54.496Z,29.73
2022-10-12T00:58:20.929Z,30.70
2022-10-12T01:00:47.497Z,31.60
2022-10-12T01:03:15.437Z,41.17
2022-10-12T01:05:41.910Z,44.87
2022-10-12T01:08:08.373Z,43.17
2022-10-12T01:10:34.857Z,38.23
2022-10-12T01:13:01.869Z,42.27
2022-10-12T01:15:29.541Z,46.33
2022-10-12T01:17:59.108Z,39.47
2022-10-12T01:20:34.838Z,41.83
2022-10-12T01:23:05.516Z,43.43
2022-10-12T01:25:52.252Z,40.57
2022-10-12T01:28:20.023Z,37.20
2022-10-12T01:30:47.863Z,42.10
2022-10-12T01:33:16.237Z,39.73
2022-10-12T01:35:44.184Z,44.67
2022-10-12T01:38:23.095Z,38.70
2022-10-12T01:40:57.347Z,39.70
2022-10-12T01:43:23.960Z,37.20
2022-10-12T01:45:50.500Z,40.60
2022-10-12T01:48:16.949Z,45.47
2022-10-12T01:50:48.184Z,40.83
2022-10-12T01:53:21.747Z,37.53
2022-10-12T01:55:48.202Z,39.10
2022-10-12T01:58:14.676Z,35.47
2022-10-12T02:00:51.171Z,33.07
2022-10-12T02:03:21.727Z,36.63
2022-10-12T02:05:56.598Z,53.70
2022-10-12T02:08:29.320Z,45.37
2022-10-12T02:10:58.348Z,52.30
2022-10-12T02:13:25.264Z,40.03
2022-10-12T02:15:51.733Z,44.47
2022-10-12T02:18:18.778Z,45.67
2022-10-12T02:20:46.736Z,44.60
2022-10-12T02:23:13.289Z,32.50
2022-10-12T02:25:39.768Z,52.13
2022-10-12T02:28:07.737Z,51.67
2022-10-12T02:30:35.690Z,44.77
2022-10-12T02:33:13.659Z,51.10
2022-10-12T02:36:00.401Z,44.97
2022-10-12T02:38:32.152Z,46.20
2022-10-12T02:41:00.508Z,43.80
2022-10-12T02:43:35.294Z,47.27
2022-10-12T02:46:02.308Z,49.87
2022-10-12T02:48:28.797Z,44.83
2022-10-12T02:50:55.959Z,48.07
2022-10-12T02:53:22.478Z,55.63
2022-10-12T02:55:53.123Z,52.80
2022-10-12T02:58:19.603Z,53.87
2022-10-12T03:00:46.025Z,49.07
2022-10-12T03:03:12.497Z,54.57
2022-10-12T03:05:38.945Z,50.20
2022-10-12T03:08:05.555Z,51.20
2022-10-12T03:10:32.341Z,59.80
2022-10-12T03:12:58.793Z,52.53
2022-10-12T03:15:25.287Z,59.13
2022-10-12T03:17:51.748Z,53.77
2022-10-12T03:20:18.228Z,56.87
2022-10-12T03:22:46.862Z,57.23
2022-10-12T03:25:13.373Z,53.27
2022-10-12T03:27:40.486Z,57.47
2022-10-12T03:30:07.628Z,56.00
2022-10-12T03:32:34.038Z,65.43
2022-10-12T03:35:00.710Z,62.97
2022-10-12T03:37:27.260Z,59.80
2022-10-12T03:39:53.667Z,52.67
2022-10-12T03:42:20.180Z,59.23
2022-10-12T03:44:46.651Z,50.93
2022-10-12T03:47:13.283Z,53.57
2022-10-12T03:49:39.799Z,50.03
2022-10-12T03:52:06.359Z,59.13
2022-10-12T03:54:32.813Z,54.53
2022-10-12T03:56:59.544Z,51.40
2022-10-12T03:59:26.060Z,51.73
2022-10-12T04:01:52.576Z,56.30
2022-10-12T04:04:19.057Z,60.63
2022-10-12T04:06:45.530Z,68.90
2022-10-12T04:09:12.079Z,62.97
2022-10-12T04:11:38.619Z,61.63
2022-10-12T04:14:05.150Z,59.37
2022-10-12T04:16:31.621Z,59.80
2022-10-12T04:18:58.189Z,51.70
2022-10-12T04:21:24.893Z,54.10
2022-10-12T04:23:51.359Z,53.00
2022-10-12T04:26:17.830Z,54.80
2022-10-12T04:28:44.462Z,58.13
2022-10-12T04:31:11.029Z,51.73
2022-10-12T04:33:37.513Z,55.30
2022-10-12T04:36:04.065Z,66.03
2022-10-12T04:38:30.483Z,63.33
2022-10-12T04:40:57.782Z,64.00
2022-10-12T04:43:24.403Z,56.97
2022-10-12T04:45:57.593Z,67.70
2022-10-12T04:48:24.350Z,60.70
2022-10-12T04:50:50.810Z,61.57
2022-10-12T04:53:17.359Z,65.50
2022-10-12T04:55:43.819Z,63.93
2022-10-12T04:58:10.332Z,65.93
2022-10-12T05:00:36.871Z,60.67
2022-10-12T05:03:04.999Z,58.87
2022-10-12T05:05:31.615Z,64.10
2022-10-12T05:07:58.163Z,62.67
2022-10-12T05:10:24.665Z,56.93
2022-10-12T05:12:51.181Z,55.00
2022-10-12T05:15:18.013Z,58.53
2022-10-12T05:17:44.668Z,52.13
2022-10-12T05:20:11.613Z,47.90
2022-10-12T05:22:38.291Z,54.70
2022-10-12T05:25:05.104Z,54.43
2022-10-12T05:27:31.619Z,58.87
2022-10-12T05:29:58.153Z,59.67
2022-10-12T05:32:24.899Z,57.20
2022-10-12T05:34:55.380Z,53.47
2022-10-12T05:37:21.863Z,54.63
2022-10-12T05:39:49.906Z,52.07
2022-10-12T05:42:16.671Z,61.63
2022-10-12T05:44:43.124Z,53.83
2022-10-12T05:47:09.974Z,55.13
2022-10-12T05:49:36.452Z,50.97
2022-10-12T05:52:03.123Z,49.10
2022-10-12T05:54:30.347Z,55.70
2022-10-12T05:56:57.352Z,53.30
2022-10-12T05:59:23.824Z,55.20
2022-10-12T06:01:50.315Z,50.70
2022-10-12T06:04:16.841Z,54.80
2022-10-12T06:06:43.353Z,51.47
2022-10-12T06:09:10.120Z,50.50
2022-10-12T06:11:36.826Z,55.03
2022-10-12T06:14:03.600Z,50.97
2022-10-12T06:16:30.133Z,57.77
2022-10-12T06:18:56.727Z,56.03
2022-10-12T06:21:38.720Z,53.57
2022-10-12T06:24:05.516Z,55.30
2022-10-12T06:26:32.253Z,48.87
2022-10-12T06:29:00.896Z,58.93
2022-10-12T06:31:28.602Z,55.30
2022-10-12T06:33:55.088Z,59.30
2022-10-12T06:36:21.682Z,51.80
2022-10-12T06:38:48.259Z,54.83
2022-10-12T06:41:14.767Z,59.93
2022-10-12T06:43:41.286Z,56.77
2022-10-12T06:46:07.740Z,60.97
2022-10-12T06:48:34.317Z,70.00
2022-10-12T06:51:00.811Z,64.73
2022-10-12T06:53:28.978Z,66.20
2022-10-12T06:55:55.447Z,70.90
2022-10-12T06:58:22.080Z,69.30
2022-10-12T07:00:48.619Z,73.40
2022-10-12T07:03:15.186Z,61.07
2022-10-12T07:05:41.651Z,64.73
2022-10-12T07:08:08.443Z,61.27
2022-10-12T07:10:35.006Z,52.73
2022-10-12T07:13:01.510Z,53.83
2022-10-12T07:15:28.015Z,54.07
2022-10-12T07:17:54.486Z,47.90
2022-10-12T07:20:21.019Z,54.43
2022-10-12T07:22:47.585Z,43.87
2022-10-12T07:25:14.186Z,42.73
2022-10-12T07:27:41.156Z,52.30
2022-10-12T07:30:08.557Z,56.60
2022-10-12T07:32:35.060Z,50.33
2022-10-12T07:35:01.590Z,51.67
2022-10-12T07:37:28.209Z,45.87
2022-10-12T07:39:57.616Z,43.33
2022-10-12T07:42:24.603Z,45.87
2022-10-12T07:44:51.296Z,40.10
2022-10-12T07:47:18.319Z,32.40
2022-10-12T07:49:44.850Z,29.00
2022-10-12T07:52:11.312Z,28.57
2022-10-12T07:54:37.818Z,25.77
2022-10-12T07:57:04.279Z,31.93
2022-10-12T07:59:30.713Z,28.63
2022-10-12T08:01:57.262Z,27.10
2022-10-12T08:04:23.759Z,27.87
2022-10-12T08:06:50.286Z,25.93
2022-10-12T08:09:16.951Z,26.63
2022-10-12T08:11:44.931Z,23.67
2022-10-12T08:14:14.915Z,22.43
2022-10-12T08:16:41.928Z,18.93
2022-10-12T08:19:08.395Z,19.57
2022-10-12T08:21:34.866Z,20.20
2022-10-12T08:24:01.368Z,20.90
2022-10-12T08:26:31.662Z,21.17
2022-10-12T08:28:58.115Z,24.70
2022-10-12T08:31:24.756Z,19.30
2022-10-12T08:33:51.195Z,15.93
2022-10-12T08:36:17.664Z,18.37
2022-10-12T08:38:44.203Z,19.50
2022-10-12T08:41:10.689Z,20.80
2022-10-12T08:43:45.252Z,14.27
2022-10-12T08:46:11.741Z,16.30
2022-10-12T08:48:48.415Z,13.53
2022-10-12T08:51:16.865Z,18.00
2022-10-12T08:53:48.265Z,16.40
2022-10-12T08:56:20.917Z,12.10
2022-10-12T08:58:47.605Z,15.57
2022-10-12T09:01:18.495Z,16.57
2022-10-12T09:03:54.528Z,15.40
2022-10-12T09:06:24.688Z,12.37
2022-10-12T09:08:57.110Z,15.80
2022-10-12T09:11:42.463Z,12.23
2022-10-12T09:14:10.368Z,16.40
2022-10-12T09:16:42.141Z,15.47
2022-10-12T09:19:12.131Z,15.43
2022-10-12T09:21:38.638Z,14.87
2022-10-12T09:24:06.508Z,15.07
2022-10-12T09:26:33.399Z,13.27
2022-10-12T09:28:59.908Z,13.50
2022-10-12T09:31:26.352Z,14.20
2022-10-12T09:33:56.874Z,14.77
2022-10-12T09:36:23.850Z,16.03
2022-10-12T09:38:50.428Z,12.57
2022-10-12T09:41:21.196Z,12.37
2022-10-12T09:43:49.773Z,12.73
2022-10-12T09:46:16.289Z,11.03
2022-10-12T09:48:58.884Z,11.77
2022-10-12T09:51:25.922Z,9.63
2022-10-12T09:53:57.357Z,14.93
2022-10-12T09:56:30.335Z,14.10
2022-10-12T09:58:58.092Z,15.23
2022-10-12T10:01:24.664Z,11.53
2022-10-12T10:04:07.917Z,9.87
2022-10-12T10:06:35.007Z,11.67
2022-10-12T10:09:01.548Z,8.63
2022-10-12T10:11:28.403Z,6.37
2022-10-12T10:13:55.095Z,8.00
2022-10-12T10:16:22.584Z,9.43
2022-10-12T10:18:49.153Z,9.70
2022-10-12T10:21:29.666Z,12.83
2022-10-12T10:24:03.063Z,8.83
2022-10-12T10:26:30.424Z,12.33
2022-10-12T10:29:17.251Z,12.23
2022-10-12T10:31:46.456Z,9.40
2022-10-12T10:34:15.991Z,5.07
2022-10-12T10:37:00.838Z,11.63
2022-10-12T10:39:27.967Z,6.37
2022-10-12T10:41:56.062Z,9.70
2022-10-12T10:44:32.437Z,9.87
2022-10-12T10:47:01.116Z,8.97
2022-10-12T10:49:38.681Z,9.93
2022-10-12T10:52:05.565Z,10.03
2022-10-12T10:54:32.981Z,10.43
2022-10-12T10:57:01.487Z,9.17
2022-10-12T10:59:35.277Z,6.30
2022-10-12T11:02:22.392Z,6.70
2022-10-12T11:04:53.655Z,6.90
2022-10-12T11:07:52.769Z,10.67
2022-10-12T11:10:27.872Z,6.33
2022-10-12T11:13:14.631Z,9.17
2022-10-12T11:15:51.152Z,6.63
2022-10-12T11:18:19.441Z,5.43
2022-10-12T11:20:51.809Z,5.27
2022-10-12T11:26:49.383Z,5.20
2022-10-12T11:29:17.861Z,5.60
2022-10-12T11:31:54.574Z,9.43
2022-10-12T11:34:21.946Z,7.20
2022-10-12T11:37:14.618Z,7.20
2022-10-12T11:39:38.317Z,4.18
2022-10-12T11:42:22.326Z,6.37
2022-10-12T11:44:49.422Z,3.10
2022-10-12T11:47:30.787Z,6.80
2022-10-12T11:50:03.825Z,5.65
2022-10-12T11:52:37.079Z,5.05
2022-10-12T11:55:12.423Z,7.82
2022-10-12T11:57:38.979Z,9.00
2022-10-12T12:00:06.278Z,7.43
2022-10-12T12:02:35.312Z,8.80
2022-10-12T12:05:01.970Z,3.77
2022-10-12T12:08:01.173Z,8.40
2022-10-12T12:10:37.376Z,4.90
2022-10-12T12:13:19.433Z,6.10
2022-10-12T12:15:52.408Z,10.27
2022-10-12T12:18:20.360Z,4.45
2022-10-12T12:20:46.962Z,3.88
2022-10-12T12:23:19.613Z,4.22
2022-10-12T12:25:46.135Z,4.68
2022-10-12T12:28:19.901Z,7.40
2022-10-12T12:30:56.905Z,5.93
2022-10-12T12:33:26.540Z,7.40
2022-10-12T12:35:57.408Z,6.63
2022-10-12T12:38:27.096Z,10.32
2022-10-12T12:40:57.332Z,7.18
2022-10-12T12:43:29.864Z,9.45
2022-10-12T12:46:03.330Z,3.83
2022-10-12T12:48:39.043Z,6.38
2022-10-12T12:51:09.375Z,6.38
2022-10-12T12:53:40.022Z,8.77
2022-10-12T12:56:08.308Z,6.25
2022-10-12T12:58:34.817Z,7.78
2022-10-12T13:01:17.562Z,5.68
2022-10-12T13:03:50.669Z,9.15
2022-10-12T13:06:35.733Z,4.57
2022-10-12T13:09:21.264Z,5.63
2022-10-12T13:12:03.201Z,5.30
2022-10-12T13:14:48.432Z,5.25
2022-10-12T13:17:32.409Z,3.05
2022-10-12T13:20:11.127Z,7.13
2022-10-12T13:22:37.556Z,6.15
2022-10-12T13:25:08.101Z,1.67
2022-10-12T13:27:47.325Z,4.32
2022-10-12T13:30:13.927Z,2.35
2022-10-12T13:32:58.741Z,5.07
2022-10-12T13:35:30.507Z,6.43
2022-10-12T13:38:17.909Z,4.55
2022-10-12T13:41:03.076Z,6.80
2022-10-12T13:43:47.854Z,3.00
2022-10-12T13:46:16.642Z,3.22
2022-10-12T13:48:59.419Z,2.85
2022-10-12T13:51:27.436Z,4.30
2022-10-12T13:53:54.141Z,3.92
2022-10-12T13:56:21.492Z,5.13
2022-10-12T13:58:47.933Z,4.22
2022-10-12T14:01:14.473Z,2.05
2022-10-12T14:03:44.497Z,4.13
2022-10-12T14:06:27.693Z,3.55
2022-10-12T14:08:56.215Z,4.80
2022-10-12T14:11:22.964Z,6.20
2022-10-12T14:13:49.647Z,3.38
2022-10-12T14:16:16.161Z,3.60
2022-10-12T14:18:44.061Z,3.35
2022-10-12T14:21:20.336Z,6.50
2022-10-12T14:23:47.392Z,3.70
2022-10-12T14:26:22.977Z,2.92
2022-10-12T14:28:49.543Z,2.45
2022-10-12T14:31:17.145Z,2.47
2022-10-12T14:33:43.758Z,5.03
2022-10-12T14:36:22.391Z,2.55
2022-10-12T14:38:49.323Z,8.05
2022-10-12T14:41:32.422Z,4.20
2022-10-12T14:44:09.695Z,4.95
2022-10-12T14:46:37.850Z,4.07
2022-10-12T14:49:04.270Z,7.35
2022-10-12T14:51:30.769Z,2.85
2022-10-12T14:53:58.051Z,4.78
2022-10-12T14:56:24.868Z,2.75
2022-10-12T14:58:51.333Z,7.78
2022-10-12T15:01:18.787Z,7.63
2022-10-12T15:03:45.289Z,6.30
2022-10-12T15:06:13.175Z,8.45
2022-10-12T15:08:39.850Z,13.18
2022-10-12T15:11:06.430Z,14.32
2022-10-12T15:13:33.037Z,12.30
2022-10-12T15:16:00.705Z,11.40
2022-10-12T15:18:27.397Z,14.32
2022-10-12T15:20:56.502Z,13.80
2022-10-12T15:23:23.794Z,11.13
2022-10-12T15:25:54.445Z,8.60
2022-10-12T15:28:21.610Z,8.60
2022-10-12T15:31:15.404Z,9.13
2022-10-12T15:33:34.868Z,8.27
2022-10-12T15:36:01.431Z,6.65
2022-10-12T15:38:28.121Z,9.32
2022-10-12T15:40:58.106Z,14.00
2022-10-12T15:43:25.023Z,9.77
2022-10-12T15:45:51.673Z,12.95
2022-10-12T15:48:18.181Z,18.20
2022-10-12T15:50:45.663Z,20.50
2022-10-12T15:53:20.980Z,22.20
2022-10-12T15:55:47.459Z,15.63
2022-10-12T15:58:14.011Z,14.07
2022-10-12T16:00:40.555Z,11.23
2022-10-12T16:03:07.150Z,9.57
2022-10-12T16:05:34.720Z,11.23
2022-10-12T16:08:01.963Z,11.00
2022-10-12T16:10:29.887Z,10.35
2022-10-12T16:12:56.537Z,15.70
2022-10-12T16:15:25.089Z,13.38
2022-10-12T16:17:51.763Z,13.80
2022-10-12T16:20:18.867Z,16.63
2022-10-12T16:22:45.473Z,24.48
2022-10-12T16:25:12.195Z,19.90
2022-10-12T16:27:38.859Z,16.67
2022-10-12T16:30:06.415Z,12.13
2022-10-12T16:32:33.185Z,11.70
2022-10-12T16:34:59.895Z,8.40
2022-10-12T16:37:26.423Z,14.20
2022-10-12T16:39:53.583Z,10.40
2022-10-12T16:42:21.023Z,10.87
2022-10-12T16:44:47.525Z,11.30
2022-10-12T16:47:14.200Z,10.77
2022-10-12T16:49:41.001Z,13.03
2022-10-12T16:52:07.470Z,11.60
2022-10-12T16:54:33.959Z,16.83
2022-10-12T16:57:01.198Z,18.03
2022-10-12T16:59:27.684Z,16.90
2022-10-12T17:01:54.342Z,17.17
2022-10-12T17:04:21.367Z,18.70
2022-10-12T17:06:48.422Z,16.70
2022-10-12T17:09:15.820Z,16.43
2022-10-12T17:11:42.668Z,17.27
2022-10-12T17:14:09.834Z,20.90
2022-10-12T17:16:48.567Z,18.47
2022-10-12T17:19:16.336Z,16.77
2022-10-12T17:21:43.166Z,15.57
2022-10-12T17:24:10.364Z,19.57
2022-10-12T17:26:40.250Z,24.93
2022-10-12T17:29:08.495Z,17.70
2022-10-12T17:31:35.115Z,19.60
2022-10-12T17:34:01.612Z,15.17
2022-10-12T17:36:28.587Z,16.67
2022-10-12T17:38:55.612Z,17.40
2022-10-12T17:41:22.161Z,18.73
2022-10-12T17:43:48.723Z,22.80
2022-10-12T17:46:17.925Z,20.07
2022-10-12T17:48:48.566Z,18.80
2022-10-12T17:51:16.247Z,15.83
2022-10-12T17:53:43.039Z,20.87
2022-10-12T17:56:26.810Z,19.00
2022-10-12T17:58:56.905Z,22.37
2022-10-12T18:01:26.516Z,20.87
2022-10-12T18:03:56.125Z,17.33
2022-10-12T18:06:30.648Z,24.23
2022-10-12T18:08:57.414Z,23.57
2022-10-12T18:11:26.471Z,20.47
2022-10-12T18:13:54.243Z,23.77
2022-10-12T18:16:22.224Z,26.10
2022-10-12T18:18:54.004Z,23.97
2022-10-12T18:21:25.276Z,34.37
2022-10-12T18:23:52.256Z,26.40
2022-10-12T18:26:23.796Z,27.53
2022-10-12T18:28:50.697Z,27.80
2022-10-12T18:31:22.174Z,27.60
2022-10-12T18:33:48.790Z,27.07
2022-10-12T18:36:17.745Z,32.13
2022-10-12T18:38:44.484Z,30.13
2022-10-12T18:41:13.064Z,34.93
2022-10-12T18:43:39.715Z,36.17
2022-10-12T18:46:13.490Z,34.63
2022-10-12T18:48:40.071Z,35.40
2022-10-12T18:51:15.838Z,35.50
2022-10-12T18:53:42.533Z,41.50
2022-10-12T18:56:10.647Z,36.97
2022-10-12T19:02:01.547Z,39.37
2022-10-12T19:04:28.084Z,43.10
2022-10-12T19:06:57.801Z,32.27
2022-10-12T19:09:24.554Z,32.50
2022-10-12T19:11:51.289Z,39.70
2022-10-12T19:14:18.080Z,39.60
2022-10-12T19:16:44.644Z,42.93
2022-10-12T19:19:14.900Z,37.10
2022-10-12T19:21:45.376Z,35.67
2022-10-12T19:24:13.290Z,39.57
2022-10-12T19:26:39.832Z,39.03
2022-10-12T19:29:06.444Z,37.90
2022-10-12T19:31:36.885Z,37.77
2022-10-12T19:34:07.543Z,42.13
2022-10-12T19:36:34.440Z,41.10
2022-10-12T19:39:02.159Z,43.20
2022-10-12T19:41:30.254Z,36.73
2022-10-12T19:43:57.115Z,35.63
2022-10-12T19:46:23.769Z,39.47
2022-10-12T19:48:51.675Z,37.40
2022-10-12T19:51:18.389Z,39.77
2022-10-12T19:53:44.925Z,46.10
2022-10-12T19:56:15.405Z,42.50
2022-10-12T19:58:42.119Z,39.73
2022-10-12T20:01:09.736Z,50.30
2022-10-12T20:03:36.239Z,50.87
2022-10-12T20:06:06.234Z,48.23
2022-10-12T20:08:33.278Z,48.37
2022-10-12T20:10:59.903Z,49.37
2022-10-12T20:13:26.361Z,51.90
2022-10-12T20:15:53.201Z,42.30
2022-10-12T20:18:19.793Z,49.03
2022-10-12T20:20:46.293Z,63.63
2022-10-12T20:23:12.831Z,69.57
2022-10-12T20:25:43.065Z,59.17
2022-10-12T20:28:09.643Z,60.83
2022-10-12T20:30:37.422Z,60.67
2022-10-12T20:33:04.006Z,52.13
2022-10-12T20:35:30.663Z,53.70
2022-10-12T20:37:57.134Z,53.10
2022-10-12T20:40:23.664Z,56.43
2022-10-12T20:42:50.187Z,61.30
2022-10-12T20:45:16.638Z,50.60
2022-10-12T20:47:43.464Z,59.77
2022-10-12T20:50:10.395Z,50.43
2022-10-12T20:52:36.877Z,52.77
2022-10-12T20:55:03.716Z,56.53
2022-10-12T20:57:30.220Z,56.53
2022-10-12T20:59:56.680Z,51.03
2022-10-12T21:02:23.384Z,50.00
2022-10-12T21:04:50.064Z,50.07
2022-10-12T21:07:16.656Z,46.50
2022-10-12T21:09:43.133Z,45.60
2022-10-12T21:12:09.762Z,48.73
2022-10-12T21:14:36.306Z,45.27
2022-10-12T21:17:02.805Z,51.60
2022-10-12T21:19:29.260Z,48.07
2022-10-12T21:21:55.820Z,50.27
2022-10-12T21:24:22.251Z,44.57
2022-10-12T21:26:48.974Z,42.60
2022-10-12T21:29:15.397Z,46.90
2022-10-12T21:31:41.879Z,43.23
2022-10-12T21:34:09.587Z,44.73
2022-10-12T21:36:36.609Z,51.03
2022-10-12T21:39:03.475Z,49.93
2022-10-12T21:41:30.226Z,39.90
2022-10-12T21:43:57.057Z,40.97
2022-10-12T21:46:32.948Z,47.40
2022-10-12T21:49:00.022Z,43.20
2022-10-12T21:51:26.760Z,49.80
2022-10-12T21:53:53.444Z,45.13
2022-10-12T21:56:19.994Z,56.83
2022-10-12T21:58:46.632Z,54.17
2022-10-12T22:01:14.028Z,52.63
2022-10-12T22:03:40.714Z,53.10
2022-10-12T22:06:07.255Z,50.70
2022-10-12T22:08:33.694Z,48.03
2022-10-12T22:11:05.051Z,53.33
2022-10-12T22:13:31.527Z,46.17
2022-10-12T22:16:04.873Z,46.57
2022-10-12T22:18:31.330Z,47.60
2022-10-12T22:20:57.949Z,48.80
2022-10-12T22:23:24.454Z,54.57
2022-10-12T22:25:51.013Z,53.33
2022-10-12T22:28:17.669Z,54.73
2022-10-12T22:30:44.143Z,51.23
2022-10-12T22:33:10.618Z,53.40
2022-10-12T22:35:37.123Z,59.83
2022-10-12T22:38:03.793Z,56.37
2022-10-12T22:40:30.330Z,56.57
2022-10-12T22:42:56.730Z,58.87
2022-10-12T22:45:27.978Z,52.07
2022-10-12T22:47:54.712Z,57.40
2022-10-12T22:50:21.279Z,52.03
2022-10-12T22:52:47.692Z,56.97
2022-10-12T22:55:14.144Z,55.17
2022-10-12T22:57:40.548Z,61.57
2022-10-12T23:00:07.337Z,55.37
2022-10-12T23:02:33.854Z,55.67
2022-10-12T23:05:00.285Z,52.00
2022-10-12T23:07:26.704Z,52.40
2022-10-12T23:09:53.160Z,53.10
2022-10-12T23:12:19.859Z,55.73
2022-10-12T23:14:46.652Z,49.47
2022-10-12T23:17:13.106Z,60.17
2022-10-12T23:19:39.504Z,54.33
2022-10-12T23:22:06.184Z,60.97
2022-10-12T23:24:32.648Z,56.97
2022-10-12T23:26:59.066Z,64.53
2022-10-12T23:29:25.453Z,69.67
2022-10-12T23:31:51.962Z,65.87
2022-10-12T23:34:18.349Z,66.77
2022-10-12T23:36:44.855Z,61.20
2022-10-12T23:39:11.326Z,67.03
2022-10-12T23:41:37.794Z,66.93
2022-10-12T23:44:04.281Z,64.87
2022-10-12T23:46:30.732Z,65.70
2022-10-12T23:48:57.191Z,61.87
2022-10-12T23:51:23.598Z,58.17
2022-10-12T23:53:50.026Z,56.37
2022-10-12T23:56:16.416Z,58.23
2022-10-12T23:58:42.862Z,57.73
